首页
METAR-TAF:

METAR-TAF

机场 :

明尼阿波利斯, 明尼蘇達州, 美国

明尼阿波利斯-圣保罗国际机场

纬度: 44-52-59N, 经度: 093-13-44W, 海拔: 256米

当前天气观测

该预报发布于1小时和2分钟前的05:53 UTC
风速3节,风向西转西南
温度 2°C
湿度 80%
气压 1006 hPa
能見度: 16.1公里
多云层高于24000英尺

METAR: KMSP 200553Z 25003KT 10SM BKN240 02/M01 A2971 RMK AO2 SLP069 4/001 T00171006 10044 20011 400671028 53024

时间: 00:55 (06:55 UTC)

预报

该预报发布于1小时和35分钟前的05:20 UTC
预报有效从20日的 06点(UTC)到 21日的 12点(UTC)
风速3节,风向多变
能見度: 10公里
多云层高于25000英尺
短暂存在
从 20日的 10点(UTC)到 20日的 14点(UTC)
能見度: 8.0公里
轻雾
从 20日的 1600点(UTC)
风速3节,风向西
能見度: 10公里
阴天层高于10000英尺
从 21日的 0400点(UTC)
风速节,风向
能見度: 10公里
多云层高于2000英尺

TAF: KMSP 200520Z 2006/2112 VRB03KT P6SM BKN250 TEMPO 2010/2014 5SM BR FM201600 26003KT P6SM OVC100 FM210400 00000KT P6SM BKN020

超过4000个机场的气象观测和天气预报(METAR&TAF报告)。

可查询的气象台以黄色和红色小点在地图上表示。

将鼠标移到小点上方,可查看气象台名称。

然后点击查看天气观测和预报。

如需切换地图:点击带黑十字的绿色按钮放大地图;点击带横线的绿色按钮缩小地图;或者点击绿色箭头查看邻近地区的地图。


METAR-TAF: